Terminal Aerodrome Forecast
Issued by NWS Sterling, VA

Current Version | Previous Version | Text Only | Print | Product List | Glossary On
Versions: 1 2 3 4 5 6 7 8 9 10 11 12 13 14 15 16 17 18 19
209
FTUS41 KLWX 171139
TAFMRB
TAF
KMRB 171139Z 1712/1812 00000KT 1/4SM FG VV002
     FM171300 VRB03KT 2SM BR SCT002 BKN025
     FM171400 VRB03KT P6SM BKN025
     FM171700 11004KT P6SM BKN050
     FM180200 VRB03KT P6SM SCT050
     FM180700 00000KT 2SM BR SCT050=

USA.gov is the U.S. government's official web portal to all federal, state and local government web resources and services.